Time;durP1;ratioP1;P1;durP2;ratioP2;P2;SDS_P1;SDS_P2;PMS_P1;PMS_P2;Temp;Humidity;BMP_temperature;BMP_pressure;BME280_temperature;BME280_humidity;BME280_pressure;Samples;Min_cycle;Max_cycle;Signal;HPM_P1;HPM_P2
2022/05/17 00:00:58;;;;;;;5.83;3.17;;;15.90;94.90;;;;;;5043409;28;20742;-81
2022/05/17 00:03:24;;;;;;;5.83;2.87;;;15.90;95.40;;;;;;5056661;28;20308;-81
2022/05/17 00:05:52;;;;;;;7.63;3.37;;;15.80;95.40;;;;;;5042643;28;20247;-81
2022/05/17 00:08:20;;;;;;;5.63;3.00;;;15.80;96.10;;;;;;5076553;28;20711;-82
2022/05/17 00:10:47;;;;;;;4.43;3.40;;;15.70;96.20;;;;;;5055399;28;21059;-81
2022/05/17 00:13:15;;;;;;;5.40;3.40;;;15.70;96.50;;;;;;5038583;28;20226;-80
2022/05/17 00:15:45;;;;;;;7.40;3.87;;;15.60;96.90;;;;;;5055994;28;20226;-80
2022/05/17 00:18:13;;;;;;;6.30;3.40;;;15.60;97.70;;;;;;5056676;28;20583;-81
2022/05/17 00:20:41;;;;;;;6.50;3.20;;;15.50;97.20;;;;;;5057706;28;20242;-80
2022/05/17 00:23:11;;;;;;;5.43;3.30;;;15.50;97.10;;;;;;5043356;28;20314;-80
2022/05/17 00:25:37;;;;;;;8.33;4.43;;;15.40;97.30;;;;;;5061350;28;20223;-80
2022/05/17 00:28:05;;;;;;;6.17;3.87;;;15.30;97.30;;;;;;5041295;28;20215;-80
2022/05/17 00:30:32;;;;;;;7.57;4.47;;;15.20;97.70;;;;;;5057888;28;20261;-80
2022/05/17 00:33:07;;;;;;;10.83;3.77;;;15.10;97.80;;;;;;5099932;27;20706;-80
2022/05/17 00:35:34;;;;;;;7.20;3.67;;;15.00;98.10;;;;;;5075220;28;20670;-81
2022/05/17 00:38:01;;;;;;;7.07;3.97;;;14.90;98.10;;;;;;5065375;28;20265;-81
2022/05/17 00:40:28;;;;;;;6.90;3.67;;;14.80;98.30;;;;;;5069999;28;20238;-81
2022/05/17 00:42:57;;;;;;;9.63;4.17;;;14.70;98.70;;;;;;5075809;28;20227;-81
2022/05/17 00:45:24;;;;;;;6.57;4.17;;;14.60;99.00;;;;;;5071162;28;20337;-82
2022/05/17 00:47:58;;;;;;;7.77;5.03;;;14.50;99.50;;;;;;5077528;28;20618;-83
2022/05/17 00:50:31;;;;;;;9.00;4.60;;;14.40;99.90;;;;;;5074357;28;20263;-83
2022/05/17 00:53:00;;;;;;;10.40;4.60;;;14.30;99.90;;;;;;5072753;28;20272;-84
2022/05/17 00:55:32;;;;;;;11.30;5.17;;;14.20;99.90;;;;;;5073144;28;20233;-83
2022/05/17 00:58:03;;;;;;;11.63;5.03;;;14.20;99.90;;;;;;5074807;28;20241;-84
2022/05/17 01:00:34;;;;;;;11.20;5.10;;;14.10;99.90;;;;;;5071241;28;20238;-83
2022/05/17 01:03:05;;;;;;;10.67;5.10;;;14.00;99.90;;;;;;5072503;28;20235;-84
2022/05/17 01:05:38;;;;;;;7.43;4.67;;;14.00;99.90;;;;;;5072584;28;20230;-84
2022/05/17 01:08:07;;;;;;;7.50;3.97;;;13.90;99.90;;;;;;5073398;28;20390;-83
2022/05/17 01:10:33;;;;;;;11.50;4.83;;;13.90;99.90;;;;;;5076911;28;20706;-83
2022/05/17 01:15:41;;;;;;;9.03;5.33;;;13.80;99.90;;;;;;5058058;28;20319;-83
2022/05/17 01:18:09;;;;;;;11.67;4.93;;;13.70;99.90;;;;;;5090281;27;20229;-83
2022/05/17 01:20:38;;;;;;;5.83;4.30;;;13.60;99.90;;;;;;5081231;27;20225;-82
2022/05/17 01:23:06;;;;;;;11.97;5.40;;;13.60;99.90;;;;;;5092593;27;20739;-83
2022/05/17 01:25:34;;;;;;;7.77;4.93;;;13.60;99.90;;;;;;5093172;28;20820;-82
2022/05/17 01:28:05;;;;;;;7.80;4.87;;;13.50;99.90;;;;;;5094581;28;20240;-83
2022/05/17 01:30:32;;;;;;;6.80;4.73;;;13.50;99.90;;;;;;5088754;28;20290;-83
2022/05/17 01:32:59;;;;;;;8.77;4.97;;;13.50;99.90;;;;;;5072926;28;20252;-82
2022/05/17 01:35:26;;;;;;;10.53;5.13;;;13.60;99.90;;;;;;5068224;28;20226;-81
2022/05/17 01:37:55;;;;;;;6.53;4.70;;;13.50;99.90;;;;;;5075801;28;20230;-82
2022/05/17 01:40:25;;;;;;;11.80;4.70;;;13.60;99.90;;;;;;5067870;28;20288;-81
2022/05/17 01:42:51;;;;;;;7.43;4.47;;;13.60;99.90;;;;;;5069927;28;20226;-82
2022/05/17 01:45:18;;;;;;;7.97;4.80;;;13.50;99.90;;;;;;5060344;28;20229;-81
2022/05/17 01:47:45;;;;;;;7.27;4.57;;;13.50;99.90;;;;;;5065520;28;20226;-82
2022/05/17 01:50:12;;;;;;;10.60;4.87;;;13.50;99.90;;;;;;5060686;28;20233;-82
2022/05/17 01:52:38;;;;;;;8.73;5.20;;;13.50;99.90;;;;;;5057746;28;20232;-82
2022/05/17 01:55:06;;;;;;;7.57;4.40;;;13.60;99.90;;;;;;5058028;28;20252;-82
2022/05/17 01:57:35;;;;;;;8.27;4.93;;;13.60;99.90;;;;;;5057046;28;20231;-82
2022/05/17 02:00:02;;;;;;;7.87;4.77;;;13.60;99.90;;;;;;5053731;28;20762;-82
2022/05/17 02:02:28;;;;;;;8.90;4.57;;;13.60;99.90;;;;;;5057310;28;20227;-81
2022/05/17 02:04:55;;;;;;;10.30;4.57;;;13.60;99.90;;;;;;5054048;28;20250;-82
2022/05/17 02:07:22;;;;;;;9.40;5.00;;;13.60;99.90;;;;;;5060307;28;20583;-82
2022/05/17 02:09:49;;;;;;;10.47;5.27;;;13.60;99.90;;;;;;5056831;28;20833;-82
2022/05/17 02:12:17;;;;;;;11.03;5.03;;;13.60;99.90;;;;;;5059172;28;20317;-82
2022/05/17 02:14:46;;;;;;;7.27;4.70;;;13.60;99.90;;;;;;5066123;28;20230;-83
2022/05/17 02:17:13;;;;;;;9.47;4.57;;;13.60;99.90;;;;;;5061254;28;20246;-82
2022/05/17 02:19:40;;;;;;;8.77;4.80;;;13.50;99.90;;;;;;5057064;28;20225;-82
2022/05/17 02:22:06;;;;;;;9.40;5.10;;;13.50;99.90;;;;;;5059464;28;20750;-83
2022/05/17 02:24:34;;;;;;;7.13;4.53;;;13.40;99.90;;;;;;5071205;28;20216;-82
2022/05/17 02:27:00;;;;;;;10.03;4.63;;;13.40;99.90;;;;;;5076748;28;20921;-82
2022/05/17 02:29:29;;;;;;;7.77;4.73;;;13.30;99.90;;;;;;5080586;28;20221;-82
2022/05/17 02:31:57;;;;;;;9.97;5.23;;;13.40;99.90;;;;;;5065014;28;20237;-82
2022/05/17 02:34:24;;;;;;;7.07;5.03;;;13.30;99.90;;;;;;5059607;28;20888;-82
2022/05/17 02:36:50;;;;;;;7.00;4.53;;;13.20;99.90;;;;;;5079972;28;21932;-82
2022/05/17 02:39:17;;;;;;;7.90;4.63;;;13.20;99.90;;;;;;5080225;28;20935;-83
2022/05/17 02:41:44;;;;;;;9.50;4.90;;;13.20;99.90;;;;;;5067006;28;20218;-81
2022/05/17 02:44:11;;;;;;;7.30;5.03;;;13.20;99.90;;;;;;5058687;28;20283;-81
2022/05/17 02:46:38;;;;;;;10.67;5.07;;;13.10;99.90;;;;;;5058031;28;20276;-81
2022/05/17 02:49:07;;;;;;;8.53;5.03;;;13.20;99.90;;;;;;5060750;28;20574;-81
2022/05/17 02:51:35;;;;;;;9.33;4.70;;;13.10;99.90;;;;;;5078984;28;20298;-81
2022/05/17 02:54:05;;;;;;;9.50;4.53;;;13.10;99.90;;;;;;5080457;28;20248;-80
2022/05/17 02:56:32;;;;;;;9.10;5.03;;;13.00;99.90;;;;;;5077245;28;20230;-81
2022/05/17 02:58:58;;;;;;;10.97;5.67;;;13.00;99.90;;;;;;5079838;28;20788;-81
2022/05/17 03:01:25;;;;;;;9.40;4.87;;;13.00;99.90;;;;;;5078913;28;20243;-83
2022/05/17 03:03:52;;;;;;;7.50;5.00;;;13.00;99.90;;;;;;5076939;28;20224;-83
2022/05/17 03:06:21;;;;;;;8.77;4.80;;;13.00;99.90;;;;;;5079224;28;20816;-83
2022/05/17 03:08:47;;;;;;;7.63;4.80;;;13.00;99.90;;;;;;5077921;28;20225;-83
2022/05/17 03:11:14;;;;;;;6.43;4.57;;;13.00;99.90;;;;;;5076984;28;20240;-83
2022/05/17 03:13:42;;;;;;;9.73;5.43;;;13.00;99.90;;;;;;5080036;28;20225;-81
2022/05/17 03:16:10;;;;;;;8.50;4.60;;;13.00;99.90;;;;;;5081228;28;20305;-82
2022/05/17 03:18:39;;;;;;;8.67;5.07;;;13.00;99.90;;;;;;5082123;28;20226;-82
2022/05/17 03:21:05;;;;;;;8.43;5.20;;;13.00;99.90;;;;;;5079654;28;20239;-82
2022/05/17 03:23:34;;;;;;;9.87;5.17;;;13.00;99.90;;;;;;5078775;28;20862;-83
2022/05/17 03:26:00;;;;;;;8.40;5.37;;;13.10;99.90;;;;;;5063132;28;20735;-82
2022/05/17 03:28:27;;;;;;;9.30;5.33;;;13.10;99.90;;;;;;5077007;28;20229;-82
2022/05/17 03:30:54;;;;;;;8.23;5.20;;;13.10;99.90;;;;;;5064085;28;20234;-83
2022/05/17 03:33:20;;;;;;;9.07;5.30;;;13.10;99.90;;;;;;5056951;28;20246;-83
2022/05/17 03:35:47;;;;;;;8.97;5.00;;;13.10;99.90;;;;;;5057371;28;20226;-83
2022/05/17 03:38:14;;;;;;;7.73;5.17;;;13.10;99.90;;;;;;5060010;28;20233;-82
2022/05/17 03:40:42;;;;;;;6.57;5.00;;;13.10;99.90;;;;;;5053796;28;20229;-82
2022/05/17 03:43:09;;;;;;;12.00;5.90;;;13.10;99.90;;;;;;5060634;28;20228;-83
2022/05/17 03:45:36;;;;;;;11.43;5.57;;;13.10;99.90;;;;;;5051223;28;20687;-83
2022/05/17 03:48:04;;;;;;;10.70;5.77;;;13.20;99.90;;;;;;5052973;28;20227;-82
2022/05/17 03:50:31;;;;;;;8.10;5.57;;;13.10;99.90;;;;;;5055884;28;20227;-81
2022/05/17 03:53:00;;;;;;;12.70;5.87;;;13.20;99.90;;;;;;5055298;28;20226;-82
2022/05/17 03:55:27;;;;;;;9.60;5.80;;;13.20;99.90;;;;;;5056011;28;20229;-82
2022/05/17 03:57:55;;;;;;;8.63;5.53;;;13.20;99.90;;;;;;5062578;28;20232;-83
2022/05/17 04:00:25;;;;;;;9.10;5.40;;;13.20;99.90;;;;;;5054059;28;20991;-80
2022/05/17 04:02:51;;;;;;;8.23;5.50;;;13.20;99.90;;;;;;5054314;28;20229;-81
2022/05/17 04:05:19;;;;;;;7.97;5.70;;;13.20;99.90;;;;;;5055936;28;20222;-82
2022/05/17 04:07:47;;;;;;;8.73;5.97;;;13.10;99.90;;;;;;5057239;28;20212;-82
2022/05/17 04:10:16;;;;;;;9.63;5.80;;;13.20;99.90;;;;;;5050782;28;20707;-81
2022/05/17 04:12:42;;;;;;;11.13;6.07;;;13.10;99.90;;;;;;5057135;28;20230;-80
2022/05/17 04:15:13;;;;;;;10.83;5.87;;;13.10;99.90;;;;;;5056696;28;20232;-82
2022/05/17 04:17:40;;;;;;;9.33;6.00;;;13.10;99.90;;;;;;5052729;28;20230;-83
2022/05/17 04:20:09;;;;;;;10.53;6.60;;;13.10;99.90;;;;;;5061061;28;20226;-82
2022/05/17 04:22:36;;;;;;;8.90;6.00;;;13.10;99.90;;;;;;5055170;28;20781;-80
2022/05/17 04:25:03;;;;;;;12.00;6.40;;;13.00;99.90;;;;;;5055005;28;20246;-82
2022/05/17 04:27:30;;;;;;;18.83;7.13;;;13.10;99.90;;;;;;5058786;28;20785;-79
2022/05/17 04:29:57;;;;;;;17.23;6.13;;;13.10;99.90;;;;;;5056847;28;20272;-81
2022/05/17 04:32:25;;;;;;;9.67;6.40;;;13.10;99.90;;;;;;5056428;28;20224;-79
2022/05/17 04:34:52;;;;;;;29.90;7.63;;;13.10;99.90;;;;;;5059272;28;20329;-81
2022/05/17 04:37:19;;;;;;;26.00;7.73;;;13.10;99.90;;;;;;5050936;28;20297;-81
2022/05/17 04:39:46;;;;;;;10.07;5.93;;;13.20;99.90;;;;;;5055491;28;20730;-81
2022/05/17 04:42:13;;;;;;;9.33;7.00;;;13.10;99.90;;;;;;5055955;28;20234;-81
2022/05/17 04:44:41;;;;;;;17.20;6.73;;;13.10;99.90;;;;;;5060294;28;20217;-81
2022/05/17 04:47:09;;;;;;;13.93;7.60;;;13.10;99.90;;;;;;5056982;28;20249;-80
2022/05/17 04:49:37;;;;;;;10.83;6.50;;;13.20;99.90;;;;;;5064988;28;20724;-82
2022/05/17 04:52:04;;;;;;;11.60;6.73;;;13.20;99.90;;;;;;5054440;28;20236;-81
2022/05/17 04:54:31;;;;;;;9.77;6.37;;;13.20;99.90;;;;;;5060780;28;20225;-82
2022/05/17 04:56:58;;;;;;;8.97;6.33;;;13.20;99.90;;;;;;5064087;28;20230;-80
2022/05/17 04:59:24;;;;;;;11.43;7.20;;;13.30;99.90;;;;;;5060335;28;20601;-80
2022/05/17 05:01:51;;;;;;;10.37;6.17;;;13.30;99.90;;;;;;5062104;28;20225;-81
2022/05/17 05:04:18;;;;;;;9.57;7.07;;;13.40;99.90;;;;;;5055689;28;20231;-83
2022/05/17 05:06:46;;;;;;;12.60;7.37;;;13.40;99.90;;;;;;5059776;28;20296;-78
2022/05/17 05:09:13;;;;;;;11.57;7.33;;;13.40;99.90;;;;;;5044037;28;20239;-78
2022/05/17 05:11:41;;;;;;;12.30;7.20;;;13.40;99.90;;;;;;5052354;28;20660;-79
2022/05/17 05:14:09;;;;;;;11.00;7.60;;;13.50;99.90;;;;;;5047356;28;20289;-79
2022/05/17 05:16:37;;;;;;;12.63;7.47;;;13.50;99.90;;;;;;5054733;28;20230;-78
2022/05/17 05:19:04;;;;;;;12.43;7.73;;;13.50;99.90;;;;;;5060885;28;20224;-78
2022/05/17 05:21:31;;;;;;;13.53;8.17;;;13.50;99.90;;;;;;5053614;28;20301;-78
2022/05/17 05:24:00;;;;;;;13.97;7.27;;;13.60;99.90;;;;;;5067970;28;20259;-78
2022/05/17 05:26:27;;;;;;;11.57;7.90;;;13.60;99.90;;;;;;5059075;28;20728;-78
2022/05/17 05:28:54;;;;;;;11.77;8.00;;;13.60;99.90;;;;;;5064013;28;20591;-78
2022/05/17 05:31:21;;;;;;;10.87;8.03;;;13.60;99.90;;;;;;5055120;28;20785;-78
2022/05/17 05:33:48;;;;;;;9.70;7.40;;;13.70;99.90;;;;;;5052943;28;20786;-79
2022/05/17 05:36:14;;;;;;;11.03;7.93;;;13.70;99.90;;;;;;5059275;28;20254;-79
2022/05/17 05:38:41;;;;;;;12.13;7.70;;;13.70;99.90;;;;;;5067572;28;20223;-78
2022/05/17 05:41:12;;;;;;;13.53;7.57;;;13.70;99.90;;;;;;5053497;28;20238;-78
2022/05/17 05:43:38;;;;;;;13.50;8.33;;;13.70;99.90;;;;;;5057339;28;20231;-78
2022/05/17 05:46:05;;;;;;;12.93;8.33;;;13.80;99.90;;;;;;5050448;28;21002;-78
2022/05/17 05:48:32;;;;;;;11.90;8.47;;;13.80;99.90;;;;;;5054542;28;20735;-79
2022/05/17 05:51:01;;;;;;;12.40;8.17;;;13.80;99.90;;;;;;5065281;28;20224;-79
2022/05/17 05:53:28;;;;;;;12.80;8.87;;;13.80;99.90;;;;;;5065654;28;20981;-79
2022/05/17 05:55:57;;;;;;;13.17;9.60;;;13.80;99.90;;;;;;5063830;28;20709;-78
2022/05/17 05:58:26;;;;;;;14.80;9.87;;;13.80;99.90;;;;;;5062689;28;20226;-79
2022/05/17 06:00:53;;;;;;;13.97;10.20;;;13.80;99.90;;;;;;5054131;28;20237;-78
2022/05/17 06:03:21;;;;;;;15.20;10.17;;;13.90;99.90;;;;;;5064300;28;20227;-79
2022/05/17 06:05:48;;;;;;;17.87;10.03;;;13.90;99.90;;;;;;5059203;28;20234;-78
2022/05/17 06:08:15;;;;;;;13.43;10.37;;;13.90;99.90;;;;;;5062543;28;20239;-78
2022/05/17 06:10:42;;;;;;;14.27;10.77;;;13.90;99.90;;;;;;5064282;28;20227;-78
2022/05/17 06:13:10;;;;;;;16.00;11.50;;;13.90;99.90;;;;;;5061462;28;20219;-78
2022/05/17 06:15:38;;;;;;;16.67;11.53;;;13.90;99.90;;;;;;5046416;28;20706;-78
2022/05/17 06:18:06;;;;;;;13.60;10.20;;;14.00;99.90;;;;;;5048335;28;20241;-78
2022/05/17 06:20:33;;;;;;;23.03;11.83;;;13.90;99.90;;;;;;5049987;28;20249;-79
2022/05/17 06:23:00;;;;;;;20.37;12.77;;;13.90;99.90;;;;;;5060496;28;20330;-79
2022/05/17 06:25:27;;;;;;;16.47;11.07;;;13.90;99.90;;;;;;5051790;28;20234;-79
2022/05/17 06:27:54;;;;;;;16.53;12.13;;;13.90;99.90;;;;;;5062980;28;20306;-81
2022/05/17 06:30:21;;;;;;;22.00;12.13;;;13.90;99.90;;;;;;5063239;28;20327;-80
2022/05/17 06:32:51;;;;;;;15.90;12.47;;;14.00;99.90;;;;;;5061034;28;20696;-80
2022/05/17 06:35:18;;;;;;;15.63;11.40;;;13.90;99.90;;;;;;5053640;28;20247;-80
2022/05/17 06:37:45;;;;;;;17.93;12.27;;;14.00;99.90;;;;;;5068425;28;20229;-81
2022/05/17 06:40:13;;;;;;;14.17;11.43;;;13.90;99.90;;;;;;5062836;28;20230;-79
2022/05/17 06:42:40;;;;;;;14.47;11.70;;;14.00;99.90;;;;;;5051064;28;20382;-80
2022/05/17 06:45:08;;;;;;;18.10;12.17;;;14.00;99.90;;;;;;5059459;28;20696;-80
2022/05/17 06:47:35;;;;;;;15.73;12.57;;;14.00;99.90;;;;;;5062935;28;20574;-80
2022/05/17 06:50:07;;;;;;;16.30;12.80;;;14.00;99.90;;;;;;5059495;28;20315;-80
2022/05/17 06:52:35;;;;;;;19.67;14.13;;;14.10;99.90;;;;;;5083838;28;20319;-80
2022/05/17 06:55:02;;;;;;;20.07;14.30;;;14.10;99.90;;;;;;5085342;28;20245;-79
2022/05/17 06:57:29;;;;;;;19.53;14.03;;;14.20;99.90;;;;;;5085792;28;20731;-80
2022/05/17 06:59:56;;;;;;;15.47;13.40;;;14.20;99.90;;;;;;5086088;28;20231;-80
2022/05/17 07:02:23;;;;;;;16.47;13.53;;;14.30;99.90;;;;;;5087326;27;20222;-80
2022/05/17 07:04:50;;;;;;;21.00;13.40;;;14.30;99.90;;;;;;5086588;28;20223;-80
2022/05/17 07:07:18;;;;;;;19.43;14.10;;;14.30;99.90;;;;;;5088835;27;20435;-80
2022/05/17 07:13:07;;;;;;;18.77;13.67;;;14.40;99.90;;;;;;5086634;28;20219;-80
2022/05/17 07:15:16;;;;;;;17.67;12.97;;;14.50;99.90;;;;;;5085853;28;20229;-80
2022/05/17 07:17:43;;;;;;;17.63;13.73;;;14.50;99.90;;;;;;5077357;28;20232;-80
2022/05/17 07:20:11;;;;;;;19.10;14.37;;;14.60;99.90;;;;;;5063368;28;20239;-80
2022/05/17 07:22:40;;;;;;;22.63;14.63;;;14.60;99.90;;;;;;5053964;28;20232;-81
2022/05/17 07:25:08;;;;;;;20.77;13.57;;;14.70;99.90;;;;;;5060151;28;20314;-80
2022/05/17 07:27:35;;;;;;;18.60;13.47;;;14.70;99.90;;;;;;5070460;28;20722;-79
2022/05/17 07:30:02;;;;;;;18.07;13.90;;;14.80;99.90;;;;;;5063662;28;20224;-79
2022/05/17 07:32:29;;;;;;;17.00;13.17;;;14.80;99.90;;;;;;5063874;28;20235;-80
2022/05/17 07:34:56;;;;;;;18.20;13.87;;;14.90;99.90;;;;;;5060330;28;20235;-79
2022/05/17 07:37:22;;;;;;;17.23;14.00;;;15.00;99.90;;;;;;5056658;28;20701;-79
2022/05/17 07:39:50;;;;;;;15.57;13.00;;;15.00;99.90;;;;;;5057455;28;20233;-79
2022/05/17 07:42:17;;;;;;;13.70;12.23;;;15.10;99.90;;;;;;5059045;28;20714;-79
2022/05/17 07:44:44;;;;;;;13.50;11.70;;;15.10;99.90;;;;;;5064987;28;20519;-80
2022/05/17 07:47:11;;;;;;;13.30;11.43;;;15.10;99.90;;;;;;5055780;28;20230;-80
2022/05/17 07:49:42;;;;;;;16.90;11.70;;;15.20;99.90;;;;;;5058994;28;20227;-79
2022/05/17 07:52:10;;;;;;;17.03;13.40;;;15.20;99.90;;;;;;5059542;28;20227;-82
2022/05/17 07:54:37;;;;;;;15.80;13.23;;;15.30;99.90;;;;;;5061117;28;20261;-83
2022/05/17 07:57:06;;;;;;;17.07;13.53;;;15.30;99.90;;;;;;5059507;28;20224;-81
2022/05/17 07:59:33;;;;;;;16.87;14.30;;;15.30;99.90;;;;;;5059327;28;20794;-83
2022/05/17 08:02:00;;;;;;;16.67;14.77;;;15.50;99.90;;;;;;5054300;28;20851;-82
2022/05/17 08:04:28;;;;;;;17.63;14.57;;;15.50;99.90;;;;;;5058337;28;20219;-84
2022/05/17 08:06:56;;;;;;;19.57;14.53;;;15.50;99.90;;;;;;5061613;28;20231;-83
2022/05/17 08:09:23;;;;;;;17.73;14.60;;;15.60;99.90;;;;;;5053931;28;20797;-85
2022/05/17 08:11:50;;;;;;;24.40;15.80;;;15.60;99.90;;;;;;5056180;28;20230;-84
2022/05/17 08:14:19;;;;;;;18.13;15.07;;;15.70;99.90;;;;;;5047880;28;20235;-85
2022/05/17 08:16:46;;;;;;;15.65;13.98;;;15.80;99.90;;;;;;5055849;28;20224;-84
2022/05/17 08:19:14;;;;;;;29.50;16.27;;;16.00;99.90;;;;;;5065903;28;20239;-83
2022/05/17 08:21:41;;;;;;;14.47;11.97;;;16.10;99.90;;;;;;5061824;28;20312;-88
2022/05/17 08:24:08;;;;;;;13.50;11.27;;;16.20;99.90;;;;;;5047426;28;20225;-82
2022/05/17 08:29:21;;;;;;;12.07;9.03;;;16.50;99.90;;;;;;5056233;28;20216;-85
2022/05/17 08:33:14;;;;;;;9.90;8.55;;;16.60;99.90;;;;;;5063929;28;20223;-84
2022/05/17 08:34:35;;;;;;;12.85;10.27;;;16.70;99.90;;;;;;5056831;28;20238;-83
2022/05/17 08:37:02;;;;;;;13.57;11.13;;;16.90;99.90;;;;;;5059689;28;20258;-85
2022/05/17 08:39:29;;;;;;;10.85;9.07;;;17.00;99.90;;;;;;5065386;28;20224;-83
2022/05/17 08:42:00;;;;;;;11.18;9.05;;;17.00;99.90;;;;;;5056391;28;20239;-84
2022/05/17 08:44:43;;;;;;;11.05;9.80;;;17.00;99.90;;;;;;5059445;28;20613;-83
2022/05/17 08:47:17;;;;;;;9.43;8.33;;;17.10;99.90;;;;;;5063929;28;20230;-84
2022/05/17 08:49:50;;;;;;;9.25;7.90;;;17.20;99.90;;;;;;5063464;28;20227;-84
2022/05/17 08:52:20;;;;;;;10.43;8.37;;;17.30;99.90;;;;;;5076459;28;20246;-82
2022/05/17 08:54:52;;;;;;;9.60;7.63;;;17.30;99.90;;;;;;5081341;28;20755;-84
2022/05/17 08:57:25;;;;;;;9.07;7.73;;;17.30;99.90;;;;;;5072147;28;20704;-84
2022/05/17 08:59:56;;;;;;;10.65;8.50;;;17.30;99.90;;;;;;5069165;28;20235;-84
2022/05/17 09:02:33;;;;;;;8.55;7.72;;;17.30;99.90;;;;;;5062977;28;20661;-82
2022/05/17 09:05:09;;;;;;;9.30;7.77;;;17.40;99.90;;;;;;5060713;28;20230;-83
2022/05/17 09:07:42;;;;;;;10.30;8.05;;;17.40;99.90;;;;;;5063551;28;20425;-83
2022/05/17 09:10:18;;;;;;;11.63;8.57;;;17.60;99.90;;;;;;5063907;28;20306;-82
2022/05/17 09:12:51;;;;;;;9.75;7.85;;;17.70;99.90;;;;;;5070734;28;20253;-82
2022/05/17 09:15:22;;;;;;;9.75;7.53;;;17.90;99.90;;;;;;5061303;28;20541;-82
2022/05/17 09:17:49;;;;;;;10.73;7.95;;;18.00;99.90;;;;;;5068356;28;20961;-83
2022/05/17 09:20:23;;;;;;;8.63;7.57;;;18.20;99.90;;;;;;5062950;28;20224;-85
2022/05/17 09:22:51;;;;;;;7.47;6.78;;;18.30;99.90;;;;;;5059852;28;20712;-81
2022/05/17 09:25:22;;;;;;;9.13;7.35;;;18.50;99.90;;;;;;5065792;28;20919;-81
2022/05/17 09:27:51;;;;;;;7.60;6.70;;;18.70;99.90;;;;;;5073385;28;20246;-81
2022/05/17 09:30:35;;;;;;;7.35;6.20;;;18.90;99.90;;;;;;5068230;28;20222;-82
2022/05/17 09:33:06;;;;;;;8.73;6.20;;;19.20;99.90;;;;;;5067741;28;20270;-82
2022/05/17 09:35:38;;;;;;;7.25;6.55;;;19.40;99.90;;;;;;5091572;28;20317;-82
2022/05/17 09:38:06;;;;;;;6.32;5.72;;;19.60;99.90;;;;;;5082223;28;20234;-84
2022/05/17 09:40:37;;;;;;;6.60;6.00;;;19.70;99.90;;;;;;5091021;28;20238;-82
2022/05/17 09:43:08;;;;;;;5.65;5.05;;;19.90;99.90;;;;;;5087762;28;20226;-82
2022/05/17 09:45:49;;;;;;;5.90;5.30;;;20.00;99.90;;;;;;5086279;28;20229;-82
2022/05/17 09:48:29;;;;;;;5.32;4.82;;;20.00;99.90;;;;;;5088179;27;20227;-82
2022/05/17 09:53:44;;;;;;;4.97;4.47;;;20.10;99.90;;;;;;5086663;28;20230;-81
2022/05/17 09:56:11;;;;;;;4.53;4.13;;;20.10;99.90;;;;;;5084435;28;20329;-81
2022/05/17 09:58:40;;;;;;;5.20;4.68;;;20.10;99.90;;;;;;5083324;28;20219;-83
2022/05/17 10:01:16;;;;;;;5.25;4.75;;;20.10;99.90;;;;;;5083980;28;20310;-81
2022/05/17 10:03:58;;;;;;;4.68;4.28;;;20.00;99.90;;;;;;5080841;28;20641;-81
2022/05/17 10:06:31;;;;;;;4.10;3.70;;;20.00;99.90;;;;;;5075417;28;20218;-82
2022/05/17 10:09:01;;;;;;;4.07;3.70;;;20.00;99.90;;;;;;5071166;28;20314;-82
2022/05/17 10:11:39;;;;;;;4.40;4.00;;;20.10;99.90;;;;;;5071141;28;20689;-81
2022/05/17 10:14:18;;;;;;;4.65;4.15;;;20.20;99.90;;;;;;5057929;28;20224;-81
2022/05/17 10:16:49;;;;;;;5.10;4.32;;;20.20;99.90;;;;;;5072220;28;20290;-81
2022/05/17 10:19:22;;;;;;;4.85;4.40;;;20.40;99.90;;;;;;5089940;27;20231;-82
2022/05/17 10:21:55;;;;;;;5.03;4.10;;;20.50;99.90;;;;;;5093014;27;20733;-81
2022/05/17 10:24:29;;;;;;;4.22;3.83;;;20.60;99.90;;;;;;5086951;27;20256;-81
2022/05/17 10:27:02;;;;;;;4.90;4.50;;;20.70;99.90;;;;;;5075530;28;20242;-81
2022/05/17 10:29:36;;;;;;;4.47;4.07;;;20.80;99.40;;;;;;5086989;27;20740;-81
2022/05/17 10:32:09;;;;;;;5.38;4.55;;;20.90;99.50;;;;;;5075817;28;20233;-81
2022/05/17 10:34:45;;;;;;;4.70;4.25;;;21.00;99.30;;;;;;5067639;28;20235;-82
2022/05/17 10:37:15;;;;;;;4.93;4.53;;;21.20;98.50;;;;;;5058314;28;20269;-81
2022/05/17 10:39:51;;;;;;;4.70;3.83;;;21.50;98.20;;;;;;5052918;28;20224;-81
2022/05/17 10:42:18;;;;;;;3.97;3.58;;;21.60;97.60;;;;;;5059308;28;20223;-82
2022/05/17 10:44:47;;;;;;;4.85;3.50;;;21.80;97.50;;;;;;5055212;28;20231;-81
2022/05/17 10:47:28;;;;;;;4.32;3.92;;;21.80;97.30;;;;;;5065016;28;20215;-82
2022/05/17 10:50:20;;;;;;;4.95;4.50;;;21.90;97.00;;;;;;5058573;28;20235;-82
2022/05/17 10:52:57;;;;;;;3.65;3.35;;;21.90;96.80;;;;;;5060981;28;20259;-81
2022/05/17 10:55:29;;;;;;;4.30;3.50;;;22.00;96.80;;;;;;5062500;28;20225;-81
2022/05/17 10:58:00;;;;;;;3.83;3.42;;;22.10;97.10;;;;;;5058888;28;20228;-81
2022/05/17 11:00:35;;;;;;;4.05;3.70;;;22.20;97.00;;;;;;5080712;28;20248;-81
2022/05/17 11:03:29;;;;;;;4.22;3.47;;;22.40;96.20;;;;;;5082535;28;20236;-81
2022/05/17 11:06:09;;;;;;;3.70;3.33;;;22.60;96.00;;;;;;5085515;28;20230;-81
2022/05/17 11:08:43;;;;;;;3.63;3.33;;;22.70;95.70;;;;;;5056464;28;20272;-81
2022/05/17 11:11:25;;;;;;;3.40;3.10;;;22.80;95.80;;;;;;5055388;28;20646;-83
2022/05/17 11:13:57;;;;;;;4.72;3.42;;;23.00;95.60;;;;;;5054771;28;20228;-81
2022/05/17 11:16:31;;;;;;;3.60;3.30;;;23.10;95.60;;;;;;5057368;28;20273;-81
2022/05/17 11:19:05;;;;;;;3.63;3.33;;;23.10;94.80;;;;;;5062506;28;20309;-81
2022/05/17 11:21:37;;;;;;;3.42;3.13;;;23.10;94.80;;;;;;5049888;28;20228;-82
2022/05/17 11:24:16;;;;;;;3.30;2.70;;;23.10;94.50;;;;;;5056913;28;20239;-80
2022/05/17 11:27:13;;;;;;;3.95;2.75;;;23.10;94.20;;;;;;5052271;28;20291;-82
2022/05/17 11:30:10;;;;;;;2.97;2.63;;;23.20;94.70;;;;;;5057456;28;20660;-81
2022/05/17 11:32:40;;;;;;;2.92;2.63;;;23.30;94.30;;;;;;5050348;28;20227;-81
2022/05/17 11:35:41;;;;;;;2.40;2.20;;;23.40;94.00;;;;;;5052421;28;20290;-82
2022/05/17 11:38:09;;;;;;;2.97;2.55;;;23.50;93.20;;;;;;5048877;28;20255;-81
2022/05/17 11:40:56;;;;;;;2.63;2.28;;;23.60;92.90;;;;;;5060885;28;20233;-82
2022/05/17 11:43:43;;;;;;;2.95;2.35;;;23.50;92.80;;;;;;5057770;28;20219;-81
2022/05/17 11:46:46;;;;;;;2.40;2.20;;;23.40;92.40;;;;;;5048636;28;20270;-82
2022/05/17 11:49:41;;;;;;;2.83;2.35;;;23.30;92.70;;;;;;5050468;28;20250;-81
2022/05/17 11:52:31;;;;;;;2.33;2.13;;;23.20;92.50;;;;;;5055630;28;20921;-81
2022/05/17 11:55:02;;;;;;;4.10;2.28;;;23.00;92.70;;;;;;5061348;28;20227;-81
2022/05/17 11:58:03;;;;;;;4.30;2.25;;;23.00;93.10;;;;;;5085794;28;20799;-82
2022/05/17 12:00:43;;;;;;;2.72;2.17;;;22.90;93.00;;;;;;5083304;28;20252;-81
2022/05/17 12:03:51;;;;;;;2.22;1.98;;;22.90;93.00;;;;;;5081301;28;20223;-81
2022/05/17 12:06:41;;;;;;;2.38;2.17;;;22.90;91.90;;;;;;5055428;28;20211;-83
2022/05/17 12:09:25;;;;;;;2.88;2.33;;;22.80;92.50;;;;;;5068064;28;20238;-82
2022/05/17 12:12:03;;;;;;;3.42;2.60;;;22.70;92.20;;;;;;5068301;28;21888;-82
2022/05/17 12:14:36;;;;;;;3.08;2.42;;;22.70;92.20;;;;;;5057409;28;20223;-82
2022/05/17 12:17:05;;;;;;;4.10;2.42;;;22.50;92.10;;;;;;5057572;28;20227;-82
2022/05/17 12:19:41;;;;;;;2.50;2.30;;;22.30;92.50;;;;;;5069364;28;20223;-81
2022/05/17 12:22:12;;;;;;;3.40;2.95;;;22.20;93.00;;;;;;5064148;28;20239;-82
2022/05/17 12:24:57;;;;;;;4.78;3.50;;;22.10;93.60;;;;;;5058287;28;20239;-81
2022/05/17 12:27:26;;;;;;;4.40;3.63;;;21.90;93.50;;;;;;5066450;28;20230;-82
2022/05/17 12:32:51;;;;;;;3.67;3.38;;;21.90;93.60;;;;;;5068278;28;20239;-81
2022/05/17 12:35:24;;;;;;;3.38;3.08;;;21.80;93.80;;;;;;5072590;27;20216;-81
2022/05/17 12:37:51;;;;;;;3.45;3.15;;;21.80;93.90;;;;;;5075709;28;20285;-81
2022/05/17 12:43:12;;;;;;;4.43;3.80;;;21.80;93.90;;;;;;5060921;28;20242;-79
2022/05/17 12:45:41;;;;;;;4.30;3.88;;;21.80;93.80;;;;;;5060472;28;20219;-83
2022/05/17 12:48:14;;;;;;;8.02;3.85;;;21.80;94.00;;;;;;5062867;28;20228;-82
2022/05/17 12:50:44;;;;;;;7.40;3.88;;;21.80;93.70;;;;;;5058871;28;20692;-82
2022/05/17 12:53:18;;;;;;;4.97;4.15;;;21.90;93.70;;;;;;5064945;28;20288;-81
2022/05/17 12:56:01;;;;;;;5.80;3.78;;;21.90;93.30;;;;;;5061748;28;20259;-86
2022/05/17 12:58:29;;;;;;;4.07;3.72;;;21.90;93.70;;;;;;5057284;28;20757;-84
2022/05/17 13:00:58;;;;;;;5.05;3.47;;;22.00;93.70;;;;;;5062984;28;20219;-84
2022/05/17 13:03:28;;;;;;;3.60;3.28;;;22.00;93.90;;;;;;5065811;28;20242;-82
2022/05/17 13:05:58;;;;;;;4.20;3.80;;;22.00;93.60;;;;;;5059013;28;20305;-84
2022/05/17 13:08:27;;;;;;;4.03;3.63;;;22.00;93.20;;;;;;5066969;28;20236;-81
2022/05/17 13:11:03;;;;;;;6.40;3.53;;;22.00;93.30;;;;;;5063463;28;20286;-83
2022/05/17 13:13:32;;;;;;;3.78;3.40;;;22.00;92.90;;;;;;5055049;28;20230;-82